createdAt,value
2019-04-03T00:03:43.158Z,35.17
2019-04-03T00:07:48.502Z,37.87
2019-04-03T00:11:53.782Z,36.03
2019-04-03T00:15:59.162Z,42.60
2019-04-03T00:20:07.053Z,32.97
2019-04-03T00:24:12.342Z,33.40
2019-04-03T00:28:17.606Z,33.53
2019-04-03T00:32:23.346Z,36.67
2019-04-03T00:36:28.897Z,35.50
2019-04-03T00:40:34.251Z,37.60
2019-04-03T00:44:39.556Z,35.77
2019-04-03T00:48:44.905Z,37.50
2019-04-03T00:52:49.912Z,40.03
2019-04-03T00:56:56.506Z,36.50
2019-04-03T01:01:01.972Z,37.97
2019-04-03T01:05:07.498Z,30.17
2019-04-03T01:09:12.689Z,33.98
2019-04-03T01:13:18.099Z,33.43
2019-04-03T01:17:23.330Z,34.57
2019-04-03T01:21:28.699Z,35.83
2019-04-03T01:25:33.693Z,32.33
2019-04-03T01:29:38.759Z,35.30
2019-04-03T01:33:46.096Z,35.93
2019-04-03T01:37:50.400Z,35.33
2019-04-03T01:41:55.466Z,39.93
2019-04-03T01:46:01.607Z,32.57
2019-04-03T01:50:07.151Z,31.12
2019-04-03T01:54:12.418Z,30.70
2019-04-03T01:58:17.699Z,31.73
2019-04-03T02:02:23.249Z,39.77
2019-04-03T02:06:28.521Z,33.43
2019-04-03T02:10:33.810Z,34.57
2019-04-03T02:14:39.061Z,33.50
2019-04-03T02:18:44.347Z,32.53
2019-04-03T02:22:50.605Z,35.70
2019-04-03T02:26:55.986Z,34.20
2019-04-03T02:31:01.308Z,39.43
2019-04-03T02:35:08.416Z,43.47
2019-04-03T02:39:14.916Z,32.20
2019-04-03T02:43:21.927Z,37.23
2019-04-03T02:47:32.533Z,35.23
2019-04-03T02:51:36.055Z,37.40
2019-04-03T02:55:41.354Z,33.17
2019-04-03T02:59:46.612Z,38.87
2019-04-03T03:03:51.970Z,37.80
2019-04-03T03:07:57.511Z,38.53
2019-04-03T03:12:03.035Z,34.47
2019-04-03T03:16:09.197Z,44.23
2019-04-03T03:20:15.384Z,43.47
2019-04-03T03:24:21.519Z,37.37
2019-04-03T03:28:27.480Z,35.20
2019-04-03T03:32:35.681Z,37.73
2019-04-03T03:36:40.421Z,29.02
2019-04-03T03:40:48.340Z,35.07
2019-04-03T03:44:54.294Z,31.93
2019-04-03T03:48:59.610Z,26.93
2019-04-03T03:53:10.152Z,34.13
2019-04-03T03:57:12.511Z,32.20
2019-04-03T04:01:18.918Z,35.13
2019-04-03T04:05:24.468Z,27.57
2019-04-03T04:09:30.938Z,39.80
2019-04-03T04:13:36.869Z,32.27
2019-04-03T04:17:42.529Z,29.47
2019-04-03T04:21:49.305Z,31.00
2019-04-03T04:25:54.878Z,33.27
2019-04-03T04:30:00.606Z,32.80
2019-04-03T04:34:06.181Z,31.33
2019-04-03T04:38:11.601Z,28.63
2019-04-03T04:42:17.074Z,38.33
2019-04-03T04:46:22.515Z,29.40
2019-04-03T04:50:27.830Z,28.93
2019-04-03T04:54:33.109Z,32.70
2019-04-03T04:58:38.434Z,30.83
2019-04-03T05:02:44.799Z,30.50
2019-04-03T05:06:50.072Z,30.97
2019-04-03T05:10:55.337Z,32.57
2019-04-03T05:15:00.619Z,31.87
2019-04-03T05:19:10.250Z,28.87
2019-04-03T05:23:13.013Z,28.33
2019-04-03T05:27:18.495Z,35.87
2019-04-03T05:31:23.765Z,37.83
2019-04-03T05:35:29.127Z,35.27
2019-04-03T05:39:34.604Z,29.87
2019-04-03T05:43:39.911Z,41.70
2019-04-03T05:47:45.207Z,36.30
2019-04-03T05:51:50.493Z,35.40
2019-04-03T05:55:55.769Z,39.00
2019-04-03T06:00:02.409Z,30.87
2019-04-03T06:04:09.950Z,34.13
2019-04-03T06:08:15.090Z,34.27
2019-04-03T06:12:20.399Z,28.20
2019-04-03T06:16:25.653Z,24.03
2019-04-03T06:20:31.014Z,31.03
2019-04-03T06:24:36.311Z,27.93
2019-04-03T06:28:43.067Z,30.13
2019-04-03T06:32:50.426Z,26.27
2019-04-03T06:36:55.746Z,30.13
2019-04-03T06:41:01.058Z,28.63
2019-04-03T06:45:07.190Z,30.90
2019-04-03T06:49:12.478Z,32.07
2019-04-03T06:53:17.798Z,28.97
2019-04-03T06:57:23.086Z,29.67
2019-04-03T07:01:28.424Z,31.87
2019-04-03T07:05:33.730Z,31.50
2019-04-03T07:09:39.054Z,28.87
2019-04-03T07:13:44.322Z,25.47
2019-04-03T07:17:49.605Z,28.03
2019-04-03T07:21:55.849Z,27.50
2019-04-03T07:26:01.360Z,22.77
2019-04-03T07:30:08.602Z,28.20
2019-04-03T07:34:14.137Z,26.07
2019-04-03T07:38:19.771Z,25.40
2019-04-03T07:42:26.666Z,24.10
2019-04-03T07:46:33.257Z,31.23
2019-04-03T07:50:39.766Z,23.10
2019-04-03T07:54:45.884Z,22.90
2019-04-03T07:58:51.133Z,23.93
2019-04-03T08:02:56.904Z,24.60
2019-04-03T08:07:02.485Z,28.80
2019-04-03T08:11:07.821Z,25.43
2019-04-03T08:15:13.987Z,22.87
2019-04-03T08:19:20.916Z,22.67
2019-04-03T08:23:26.235Z,24.43
2019-04-03T08:27:31.518Z,22.50
2019-04-03T08:31:37.778Z,22.17
2019-04-03T08:35:43.297Z,23.07
2019-04-03T08:39:50.896Z,22.33
2019-04-03T08:43:56.463Z,20.83
2019-04-03T08:48:02.335Z,23.57
2019-04-03T08:52:07.713Z,22.80
2019-04-03T08:56:13.014Z,21.17
2019-04-03T09:00:19.928Z,22.10
2019-04-03T09:04:25.427Z,21.23
2019-04-03T09:08:30.935Z,22.37
2019-04-03T09:12:38.123Z,17.90
2019-04-03T09:16:43.391Z,22.50
2019-04-03T09:20:48.646Z,19.67
2019-04-03T09:24:54.269Z,25.37
2019-04-03T09:28:59.550Z,23.00
2019-04-03T09:33:04.830Z,20.43
2019-04-03T09:37:10.197Z,26.17
2019-04-03T09:41:17.124Z,23.10
2019-04-03T09:45:22.686Z,23.60
2019-04-03T09:49:27.994Z,34.80
2019-04-03T09:53:33.260Z,23.67
2019-04-03T09:57:38.554Z,22.20
2019-04-03T10:01:43.923Z,26.20
2019-04-03T10:05:49.535Z,26.70
2019-04-03T10:09:54.973Z,29.67
2019-04-03T10:14:00.473Z,27.60
2019-04-03T10:18:06.931Z,26.73
2019-04-03T10:22:12.931Z,24.47
2019-04-03T10:26:18.597Z,27.03
2019-04-03T10:30:24.113Z,29.40
2019-04-03T10:34:29.406Z,25.87
2019-04-03T10:38:34.892Z,25.30
2019-04-03T10:42:45.114Z,26.60
2019-04-03T10:46:50.785Z,26.23
2019-04-03T10:51:01.217Z,23.43
2019-04-03T10:55:07.565Z,26.27
2019-04-03T10:59:13.892Z,27.23
2019-04-03T11:03:19.759Z,27.90
2019-04-03T11:07:25.054Z,27.20
2019-04-03T11:11:30.625Z,28.20
2019-04-03T11:15:36.115Z,30.87
2019-04-03T11:19:44.094Z,27.13
2019-04-03T11:23:48.248Z,26.50
2019-04-03T11:27:53.951Z,25.17
2019-04-03T11:31:59.762Z,22.50
2019-04-03T11:36:05.442Z,25.27
2019-04-03T11:40:11.735Z,22.83
2019-04-03T11:44:17.045Z,25.77
2019-04-03T11:48:22.377Z,23.50
2019-04-03T11:52:27.738Z,22.23
2019-04-03T11:56:33.061Z,27.10
2019-04-03T12:00:40.024Z,25.87
2019-04-03T12:04:45.439Z,28.93
2019-04-03T12:08:50.793Z,22.70
2019-04-03T12:12:56.085Z,29.83
2019-04-03T12:17:02.428Z,31.03
2019-04-03T12:21:09.966Z,26.90
2019-04-03T12:25:15.187Z,29.13
2019-04-03T12:29:21.388Z,27.27
2019-04-03T12:33:27.850Z,22.93
2019-04-03T12:37:33.281Z,26.63
2019-04-03T12:41:38.582Z,26.03
2019-04-03T12:45:43.893Z,24.30
2019-04-03T12:49:49.178Z,25.17
2019-04-03T12:53:54.486Z,26.33
2019-04-03T12:57:59.781Z,29.30
2019-04-03T13:02:05.192Z,24.30
2019-04-03T13:06:10.957Z,26.47
2019-04-03T13:10:16.983Z,25.20
2019-04-03T13:14:26.249Z,25.77
2019-04-03T13:18:29.197Z,27.57
2019-04-03T13:22:35.513Z,25.03
2019-04-03T13:26:40.802Z,26.53
2019-04-03T13:30:46.213Z,29.33
2019-04-03T13:34:51.802Z,22.27
2019-04-03T13:39:00.318Z,29.00
2019-04-03T13:43:04.372Z,30.60
2019-04-03T13:47:09.848Z,26.53
2019-04-03T13:51:16.124Z,25.07
2019-04-03T13:55:21.855Z,23.03
2019-04-03T13:59:27.589Z,28.80
2019-04-03T14:03:33.066Z,27.17
2019-04-03T14:07:41.506Z,28.53
2019-04-03T14:11:45.840Z,21.83
2019-04-03T14:15:51.506Z,21.23
2019-04-03T14:19:57.208Z,18.70
2019-04-03T14:24:02.590Z,19.37
2019-04-03T14:28:08.173Z,21.57
2019-04-03T14:32:14.270Z,20.50
2019-04-03T14:36:20.391Z,22.60
2019-04-03T14:40:25.888Z,23.67
2019-04-03T14:44:31.105Z,20.90
2019-04-03T14:48:36.392Z,19.40
2019-04-03T14:52:42.008Z,20.73
2019-04-03T14:56:47.396Z,22.33
2019-04-03T15:00:53.294Z,22.57
2019-04-03T15:04:59.038Z,23.13
2019-04-03T15:09:06.400Z,26.47
2019-04-03T15:13:13.675Z,25.20
2019-04-03T15:17:19.241Z,20.73
2019-04-03T15:21:25.289Z,19.93
2019-04-03T15:25:30.701Z,15.80
2019-04-03T15:29:38.209Z,14.67
2019-04-03T15:33:42.882Z,16.40
2019-04-03T15:37:48.154Z,15.83
2019-04-03T15:41:53.473Z,16.53
2019-04-03T15:45:58.733Z,18.70
2019-04-03T15:50:06.262Z,17.40
2019-04-03T15:54:11.554Z,20.83
2019-04-03T15:58:16.843Z,23.67
2019-04-03T16:02:22.638Z,21.43
2019-04-03T16:06:28.292Z,23.00
2019-04-03T16:10:35.170Z,26.23
2019-04-03T16:14:40.907Z,20.33
2019-04-03T16:18:46.698Z,25.57
2019-04-03T16:22:52.032Z,23.10
2019-04-03T16:26:57.660Z,24.47
2019-04-03T16:31:03.700Z,26.03
2019-04-03T16:35:12.602Z,22.97
2019-04-03T16:39:17.473Z,25.57
2019-04-03T16:43:23.907Z,25.07
2019-04-03T16:47:29.386Z,25.50
2019-04-03T16:51:34.661Z,23.70
2019-04-03T16:55:39.946Z,25.47
2019-04-03T16:59:45.265Z,24.97
2019-04-03T17:03:50.648Z,26.33
2019-04-03T17:07:56.055Z,30.57
2019-04-03T17:12:01.403Z,25.70
2019-04-03T17:16:07.750Z,25.23
2019-04-03T17:20:13.247Z,24.07
2019-04-03T17:24:18.808Z,26.57
2019-04-03T17:28:26.277Z,26.03
2019-04-03T17:32:31.730Z,26.17
2019-04-03T17:36:37.958Z,28.63
2019-04-03T17:40:44.951Z,26.87
2019-04-03T17:44:51.282Z,29.03
2019-04-03T17:48:56.657Z,27.27
2019-04-03T17:53:02.120Z,26.97
2019-04-03T17:57:08.734Z,27.93
2019-04-03T18:01:14.090Z,33.33
2019-04-03T18:05:19.649Z,29.20
2019-04-03T18:09:26.079Z,28.33
2019-04-03T18:13:32.259Z,25.93
2019-04-03T18:17:40.275Z,23.17
2019-04-03T18:21:48.929Z,27.43
2019-04-03T18:25:55.241Z,29.73
2019-04-03T18:30:00.817Z,28.87
2019-04-03T18:34:07.906Z,28.50
2019-04-03T18:38:14.131Z,33.27
2019-04-03T18:42:19.499Z,33.27
2019-04-03T18:46:32.021Z,31.17
2019-04-03T18:50:34.957Z,29.30
2019-04-03T18:54:38.610Z,40.07
2019-04-03T18:58:44.195Z,29.27
2019-04-03T19:02:49.549Z,29.00
2019-04-03T19:06:54.917Z,29.97
2019-04-03T19:11:02.211Z,25.00
2019-04-03T19:15:07.883Z,31.07
2019-04-03T19:19:16.385Z,28.57
2019-04-03T19:23:21.167Z,33.63
2019-04-03T19:27:26.514Z,32.20
2019-04-03T19:31:31.854Z,40.17
2019-04-03T19:35:37.122Z,27.77
2019-04-03T19:39:42.413Z,32.63
2019-04-03T19:43:54.253Z,29.27
2019-04-03T19:47:59.531Z,31.73
2019-04-03T19:52:06.035Z,33.77
2019-04-03T19:56:11.832Z,40.00
2019-04-03T20:00:17.346Z,34.43
2019-04-03T20:04:22.686Z,35.80
2019-04-03T20:08:30.028Z,27.80
2019-04-03T20:12:35.785Z,32.17
2019-04-03T20:16:42.044Z,35.97
2019-04-03T20:20:47.337Z,31.00
2019-04-03T20:24:59.874Z,23.80
2019-04-03T20:29:02.104Z,30.63
2019-04-03T20:33:07.649Z,26.00
2019-04-03T20:37:12.938Z,30.60
2019-04-03T20:41:18.281Z,29.97
2019-04-03T20:45:23.638Z,30.97
2019-04-03T20:49:28.922Z,35.33
2019-04-03T20:53:34.233Z,38.00
2019-04-03T20:57:39.558Z,29.90
2019-04-03T21:01:44.863Z,33.00
2019-04-03T21:05:50.148Z,31.20
2019-04-03T21:09:55.433Z,30.97
2019-04-03T21:14:00.860Z,31.20
2019-04-03T21:18:06.126Z,27.33
2019-04-03T21:22:11.414Z,28.93
2019-04-03T21:26:16.705Z,27.93
2019-04-03T21:30:23.928Z,27.87
2019-04-03T21:34:28.913Z,30.13
2019-04-03T21:38:34.178Z,35.10
2019-04-03T21:42:39.470Z,27.93
2019-04-03T21:46:44.774Z,31.03
2019-04-03T21:50:50.432Z,31.50
2019-04-03T21:54:58.426Z,25.90
2019-04-03T21:59:02.697Z,27.40
2019-04-03T22:03:08.022Z,34.47
2019-04-03T22:07:13.314Z,25.17
2019-04-03T22:11:18.764Z,31.43
2019-04-03T22:15:24.058Z,28.47
2019-04-03T22:19:29.341Z,28.30
2019-04-03T22:23:36.354Z,28.67
2019-04-03T22:27:42.749Z,37.20
2019-04-03T22:31:48.669Z,26.67
2019-04-03T22:35:53.955Z,37.10
2019-04-03T22:39:59.250Z,33.67
2019-04-03T22:44:04.697Z,43.20
2019-04-03T22:48:09.996Z,28.40
2019-04-03T22:52:15.383Z,32.03
2019-04-03T22:56:20.672Z,27.97
2019-04-03T23:00:26.329Z,31.83
2019-04-03T23:04:31.592Z,33.50
2019-04-03T23:08:36.966Z,33.30
2019-04-03T23:12:42.269Z,31.13
2019-04-03T23:16:47.677Z,31.97
2019-04-03T23:20:53.345Z,25.27
2019-04-03T23:24:59.481Z,32.13
2019-04-03T23:29:05.831Z,28.67
2019-04-03T23:33:11.301Z,26.20
2019-04-03T23:37:16.654Z,27.03
2019-04-03T23:41:21.966Z,24.73
2019-04-03T23:45:28.886Z,27.20
2019-04-03T23:49:34.160Z,25.73
2019-04-03T23:53:39.453Z,28.30
2019-04-03T23:57:44.753Z,26.57
